createdAt,value
2023-01-07T00:01:42.897Z,0.70
2023-01-07T00:04:13.314Z,0.80
2023-01-07T00:06:44.559Z,0.90
2023-01-07T00:09:14.576Z,1.02
2023-01-07T00:11:42.797Z,0.80
2023-01-07T00:14:13.139Z,0.85
2023-01-07T00:16:41.721Z,0.88
2023-01-07T00:19:13.498Z,0.80
2023-01-07T00:21:43.000Z,1.02
2023-01-07T00:24:12.202Z,0.70
2023-01-07T00:26:40.381Z,0.80
2023-01-07T00:29:09.597Z,0.80
2023-01-07T00:31:40.024Z,0.75
2023-01-07T00:34:09.454Z,0.70
2023-01-07T00:36:40.954Z,1.02
2023-01-07T00:39:13.251Z,0.80
2023-01-07T00:42:01.389Z,0.77
2023-01-07T00:44:29.369Z,0.90
2023-01-07T00:46:57.808Z,1.00
2023-01-07T00:49:25.728Z,0.95
2023-01-07T00:51:53.784Z,1.05
2023-01-07T00:54:22.975Z,0.80
2023-01-07T00:56:51.016Z,0.60
2023-01-07T00:59:18.840Z,1.08
2023-01-07T01:01:47.082Z,1.00
2023-01-07T01:04:14.938Z,1.10
2023-01-07T01:06:42.747Z,1.02
2023-01-07T01:09:10.555Z,0.70
2023-01-07T01:11:39.652Z,1.00
2023-01-07T01:14:07.525Z,0.70
2023-01-07T01:16:35.375Z,1.10
2023-01-07T01:19:03.285Z,1.00
2023-01-07T01:21:31.936Z,1.00
2023-01-07T01:23:59.704Z,0.77
2023-01-07T01:26:27.504Z,0.63
2023-01-07T01:28:57.458Z,0.73
2023-01-07T01:31:26.316Z,0.70
2023-01-07T01:33:55.748Z,0.63
2023-01-07T01:36:24.932Z,0.70
2023-01-07T01:38:56.634Z,0.55
2023-01-07T01:41:24.552Z,0.85
2023-01-07T01:43:55.947Z,0.60
2023-01-07T01:46:32.106Z,0.47
2023-01-07T01:49:03.711Z,0.73
2023-01-07T01:51:36.990Z,0.90
2023-01-07T01:54:07.149Z,0.60
2023-01-07T01:56:39.306Z,0.82
2023-01-07T01:59:12.831Z,0.50
2023-01-07T02:01:41.622Z,0.65
2023-01-07T02:04:17.567Z,0.60
2023-01-07T02:06:50.962Z,0.60
2023-01-07T02:09:19.206Z,0.70
2023-01-07T02:11:54.484Z,0.60
2023-01-07T02:14:45.267Z,0.70
2023-01-07T02:17:20.212Z,0.63
2023-01-07T02:20:19.243Z,0.50
2023-01-07T02:23:20.462Z,0.60
2023-01-07T02:26:15.041Z,0.60
2023-01-07T02:29:20.518Z,0.63
2023-01-07T02:32:15.003Z,0.70
2023-01-07T02:34:50.802Z,0.63
2023-01-07T02:37:25.661Z,0.50
2023-01-07T02:40:01.467Z,0.68
2023-01-07T02:42:38.543Z,0.50
2023-01-07T02:45:12.152Z,0.52
2023-01-07T02:47:47.628Z,0.50
2023-01-07T02:50:15.924Z,0.50
2023-01-07T02:52:43.877Z,0.60
2023-01-07T02:55:15.604Z,0.47
2023-01-07T02:58:20.509Z,0.60
2023-01-07T03:01:11.530Z,0.73
2023-01-07T03:03:54.531Z,0.55
2023-01-07T03:06:42.029Z,0.50
2023-01-07T03:09:17.057Z,0.60
2023-01-07T03:11:51.713Z,0.50
2023-01-07T03:14:23.728Z,0.60
2023-01-07T03:16:55.986Z,0.63
2023-01-07T03:19:29.338Z,0.52
2023-01-07T03:21:59.165Z,0.60
2023-01-07T03:24:29.184Z,0.60
2023-01-07T03:27:00.885Z,0.50
2023-01-07T03:29:29.252Z,0.60
2023-01-07T03:32:02.536Z,0.57
2023-01-07T03:34:33.458Z,0.70
2023-01-07T03:37:04.089Z,0.47
2023-01-07T03:39:35.527Z,0.45
2023-01-07T03:42:25.312Z,0.50
2023-01-07T03:44:53.475Z,0.55
2023-01-07T03:47:24.285Z,0.40
2023-01-07T03:49:53.380Z,0.50
2023-01-07T03:52:21.202Z,0.45
2023-01-07T03:54:49.028Z,0.40
2023-01-07T03:57:17.195Z,0.52
2023-01-07T03:59:45.107Z,0.50
2023-01-07T04:02:13.632Z,0.32
2023-01-07T04:04:42.021Z,0.50
2023-01-07T04:07:11.720Z,0.20
2023-01-07T04:09:39.555Z,0.40
2023-01-07T04:12:09.157Z,0.40
2023-01-07T04:14:37.015Z,0.40
2023-01-07T04:17:04.850Z,0.43
2023-01-07T04:19:33.946Z,0.40
2023-01-07T04:22:01.867Z,0.57
2023-01-07T04:24:32.516Z,0.35
2023-01-07T04:27:00.313Z,0.52
2023-01-07T04:29:28.203Z,0.50
2023-01-07T04:31:56.271Z,0.40
2023-01-07T04:34:24.732Z,0.50
2023-01-07T04:36:53.500Z,0.30
2023-01-07T04:39:21.441Z,0.40
2023-01-07T04:41:50.600Z,0.40
2023-01-07T04:44:18.715Z,0.65
2023-01-07T04:46:46.522Z,0.50
2023-01-07T04:49:14.778Z,0.47
2023-01-07T04:51:43.581Z,0.40
2023-01-07T04:54:11.528Z,0.40
2023-01-07T04:56:39.743Z,0.40
2023-01-07T04:59:09.727Z,0.60
2023-01-07T05:01:37.728Z,0.40
2023-01-07T05:04:07.436Z,0.50
2023-01-07T05:06:35.443Z,0.50
2023-01-07T05:09:04.258Z,0.80
2023-01-07T05:11:33.478Z,0.50
2023-01-07T05:14:02.439Z,0.60
2023-01-07T05:16:34.497Z,0.70
2023-01-07T05:19:06.492Z,0.40
2023-01-07T05:21:38.573Z,0.60
2023-01-07T05:24:06.960Z,0.40
2023-01-07T05:26:34.771Z,0.60
2023-01-07T05:29:03.067Z,0.40
2023-01-07T05:31:30.867Z,0.40
2023-01-07T05:34:00.045Z,0.32
2023-01-07T05:36:29.115Z,0.30
2023-01-07T05:38:57.408Z,0.40
2023-01-07T05:41:25.207Z,0.40
2023-01-07T05:43:53.058Z,0.30
2023-01-07T05:46:20.939Z,0.40
2023-01-07T05:48:48.783Z,0.38
2023-01-07T05:51:17.947Z,0.45
2023-01-07T05:53:45.715Z,0.73
2023-01-07T05:56:13.472Z,0.30
2023-01-07T05:58:41.244Z,0.40
2023-01-07T06:01:09.099Z,0.40
2023-01-07T06:03:36.999Z,0.60
2023-01-07T06:06:07.309Z,0.40
2023-01-07T06:08:37.017Z,0.40
2023-01-07T06:11:05.985Z,0.30
2023-01-07T06:13:33.933Z,0.40
2023-01-07T06:16:02.140Z,0.30
2023-01-07T06:18:30.138Z,0.40
2023-01-07T06:20:58.296Z,0.50
2023-01-07T06:23:26.124Z,0.50
2023-01-07T06:25:55.293Z,0.52
2023-01-07T06:28:23.139Z,0.38
2023-01-07T06:30:51.018Z,0.50
2023-01-07T06:33:18.885Z,0.40
2023-01-07T06:35:47.289Z,0.60
2023-01-07T06:38:15.157Z,0.40
2023-01-07T06:40:44.586Z,0.50
2023-01-07T06:43:13.787Z,0.30
2023-01-07T06:45:41.782Z,0.40
2023-01-07T06:48:09.780Z,0.30
2023-01-07T06:50:37.618Z,0.70
2023-01-07T06:53:05.656Z,0.30
2023-01-07T06:55:33.464Z,0.40
2023-01-07T06:58:01.266Z,0.60
2023-01-07T07:00:30.560Z,0.50
2023-01-07T07:02:58.481Z,0.50
2023-01-07T07:05:26.739Z,0.50
2023-01-07T07:07:54.489Z,0.43
2023-01-07T07:10:22.297Z,0.40
2023-01-07T07:12:50.119Z,0.45
2023-01-07T07:15:18.065Z,0.43
2023-01-07T07:17:47.156Z,0.30
2023-01-07T07:20:15.277Z,0.60
2023-01-07T07:22:46.233Z,0.30
2023-01-07T07:25:14.538Z,0.40
2023-01-07T07:27:44.735Z,0.40
2023-01-07T07:30:13.544Z,0.40
2023-01-07T07:32:41.369Z,0.50
2023-01-07T07:35:11.621Z,0.30
2023-01-07T07:37:39.672Z,0.40
2023-01-07T07:40:09.462Z,0.50
2023-01-07T07:43:11.915Z,0.32
2023-01-07T07:45:26.549Z,0.40
2023-01-07T07:47:54.396Z,0.38
2023-01-07T07:50:23.905Z,0.50
2023-01-07T07:52:51.660Z,0.40
2023-01-07T07:55:26.281Z,0.45
2023-01-07T07:57:54.736Z,0.80
2023-01-07T08:00:22.832Z,0.52
2023-01-07T08:02:50.642Z,0.63
2023-01-07T08:05:18.711Z,0.32
2023-01-07T08:07:47.908Z,0.50
2023-01-07T08:10:15.695Z,0.90
2023-01-07T08:12:43.536Z,0.60
2023-01-07T08:15:12.029Z,0.75
2023-01-07T08:17:39.946Z,0.82
2023-01-07T08:20:09.358Z,0.57
2023-01-07T08:22:37.252Z,0.63
2023-01-07T08:25:07.310Z,0.80
2023-01-07T08:27:35.157Z,0.80
2023-01-07T08:30:02.990Z,0.50
2023-01-07T08:32:30.800Z,0.55
2023-01-07T08:34:58.713Z,0.50
2023-01-07T08:37:26.492Z,0.85
2023-01-07T08:39:54.267Z,0.90
2023-01-07T08:42:23.548Z,0.68
2023-01-07T08:44:51.645Z,0.60
2023-01-07T08:47:19.478Z,0.60
2023-01-07T08:49:47.380Z,0.40
2023-01-07T08:52:15.233Z,0.68
2023-01-07T08:54:43.030Z,0.50
2023-01-07T08:57:10.791Z,0.60
2023-01-07T08:59:40.742Z,0.43
2023-01-07T09:02:11.547Z,0.60
2023-01-07T09:04:39.397Z,0.75
2023-01-07T09:07:07.270Z,0.68
2023-01-07T09:09:35.100Z,0.80
2023-01-07T09:12:03.396Z,0.68
2023-01-07T09:14:31.267Z,0.60
2023-01-07T09:17:00.466Z,1.10
2023-01-07T09:19:30.485Z,1.80
2023-01-07T09:21:58.329Z,0.32
2023-01-07T09:24:28.366Z,0.40
2023-01-07T09:26:56.350Z,0.80
2023-01-07T09:29:24.477Z,1.55
2023-01-07T09:31:52.422Z,1.40
2023-01-07T09:34:21.906Z,0.70
2023-01-07T09:36:49.714Z,0.70
2023-01-07T09:39:17.522Z,0.60
2023-01-07T09:41:52.716Z,0.50
2023-01-07T09:44:28.272Z,0.77
2023-01-07T09:46:56.888Z,0.68
2023-01-07T09:49:32.323Z,1.05
2023-01-07T09:52:05.584Z,1.13
2023-01-07T09:54:36.231Z,0.70
2023-01-07T09:57:04.548Z,0.40
2023-01-07T09:59:32.468Z,0.60
2023-01-07T10:02:12.273Z,0.70
2023-01-07T10:04:49.664Z,1.15
2023-01-07T10:07:24.754Z,0.90
2023-01-07T10:10:07.204Z,0.60
2023-01-07T10:12:43.207Z,3.00
2023-01-07T10:15:23.384Z,2.20
2023-01-07T10:18:06.059Z,2.38
2023-01-07T10:20:43.946Z,0.98
2023-01-07T10:23:15.197Z,4.72
2023-01-07T10:25:49.098Z,2.80
2023-01-07T10:28:22.962Z,12.15
2023-01-07T10:30:52.832Z,3.00
2023-01-07T10:33:25.198Z,11.00
2023-01-07T10:36:04.502Z,3.45
2023-01-07T10:38:36.008Z,4.43
2023-01-07T10:41:11.143Z,5.82
2023-01-07T10:43:56.842Z,1.50
2023-01-07T10:49:18.657Z,0.93
2023-01-07T10:52:01.509Z,11.27
2023-01-07T10:54:44.375Z,7.68
2023-01-07T10:57:18.246Z,2.72
2023-01-07T10:59:50.081Z,16.17
2023-01-07T11:02:20.309Z,5.85
2023-01-07T11:04:49.572Z,7.80
2023-01-07T11:07:29.275Z,5.90
2023-01-07T11:09:59.604Z,1.35
2023-01-07T11:12:36.729Z,1.48
2023-01-07T11:15:08.075Z,1.38
2023-01-07T11:17:40.386Z,10.60
2023-01-07T11:20:09.133Z,3.28
2023-01-07T11:22:39.686Z,5.38
2023-01-07T11:25:26.763Z,2.28
2023-01-07T11:27:54.537Z,0.80
2023-01-07T11:30:26.655Z,0.70
2023-01-07T11:32:59.067Z,0.50
2023-01-07T11:35:29.083Z,1.38
2023-01-07T11:37:59.341Z,2.60
2023-01-07T11:40:29.437Z,0.68
2023-01-07T11:42:58.945Z,0.60
2023-01-07T11:45:29.088Z,0.60
2023-01-07T11:48:02.854Z,8.38
2023-01-07T11:50:35.977Z,1.35
2023-01-07T11:53:24.411Z,1.33
2023-01-07T11:56:00.693Z,1.55
2023-01-07T11:58:31.440Z,0.88
2023-01-07T12:01:14.344Z,1.27
2023-01-07T12:03:43.665Z,0.40
2023-01-07T12:06:19.929Z,0.77
2023-01-07T12:09:01.738Z,0.45
2023-01-07T12:11:33.904Z,0.75
2023-01-07T12:14:07.491Z,0.75
2023-01-07T12:16:37.068Z,0.35
2023-01-07T12:19:18.264Z,0.80
2023-01-07T12:22:02.077Z,0.45
2023-01-07T12:24:52.832Z,0.55
2023-01-07T12:27:32.744Z,0.70
2023-01-07T12:30:20.292Z,0.45
2023-01-07T12:32:58.998Z,0.50
2023-01-07T12:35:31.293Z,0.70
2023-01-07T12:38:03.820Z,0.93
2023-01-07T12:40:37.828Z,1.95
2023-01-07T12:43:12.756Z,2.08
2023-01-07T12:45:44.049Z,1.00
2023-01-07T12:48:19.695Z,0.95
2023-01-07T12:50:51.168Z,1.23
2023-01-07T12:53:25.891Z,0.80
2023-01-07T12:56:00.251Z,0.68
2023-01-07T12:58:40.470Z,0.50
2023-01-07T13:01:17.787Z,0.52
2023-01-07T13:03:52.983Z,0.80
2023-01-07T13:06:31.683Z,0.77
2023-01-07T13:09:08.728Z,1.05
2023-01-07T13:12:00.248Z,9.30
2023-01-07T13:14:36.846Z,1.10
2023-01-07T13:17:16.339Z,1.08
2023-01-07T13:19:47.427Z,0.80
2023-01-07T13:22:21.687Z,0.90
2023-01-07T13:24:58.918Z,0.95
2023-01-07T13:27:38.733Z,1.48
2023-01-07T13:30:20.273Z,1.02
2023-01-07T13:33:03.978Z,0.93
2023-01-07T13:35:46.942Z,1.00
2023-01-07T13:38:39.078Z,1.05
2023-01-07T13:41:20.810Z,1.20
2023-01-07T13:44:10.015Z,1.10
2023-01-07T13:46:41.334Z,1.30
2023-01-07T13:49:25.383Z,1.40
2023-01-07T13:51:54.798Z,0.90
2023-01-07T13:55:02.936Z,1.00
2023-01-07T13:57:44.859Z,1.05
2023-01-07T14:00:48.086Z,0.95
2023-01-07T14:03:40.265Z,0.93
2023-01-07T14:06:33.455Z,1.20
2023-01-07T14:09:30.769Z,1.38
2023-01-07T14:12:35.800Z,1.42
2023-01-07T14:15:23.133Z,1.50
2023-01-07T14:18:04.845Z,1.70
2023-01-07T14:20:41.025Z,1.83
2023-01-07T14:23:21.737Z,1.58
2023-01-07T14:26:02.025Z,1.77
2023-01-07T14:29:10.911Z,2.60
2023-01-07T14:31:38.845Z,2.15
2023-01-07T14:34:18.146Z,2.20
2023-01-07T14:37:11.478Z,2.60
2023-01-07T14:39:40.837Z,2.60
2023-01-07T14:42:42.006Z,2.53
2023-01-07T14:45:47.617Z,2.35
2023-01-07T14:48:33.644Z,2.88
2023-01-07T14:51:45.437Z,3.15
2023-01-07T14:54:32.086Z,2.92
2023-01-07T14:57:09.819Z,3.33
2023-01-07T15:00:13.663Z,3.10
2023-01-07T15:03:12.968Z,3.72
2023-01-07T15:06:01.360Z,3.92
2023-01-07T15:08:59.431Z,3.40
2023-01-07T15:11:45.471Z,3.28
2023-01-07T15:14:39.471Z,3.33
2023-01-07T15:17:07.826Z,3.38
2023-01-07T15:19:38.501Z,3.25
2023-01-07T15:22:19.652Z,3.50
2023-01-07T15:24:56.293Z,3.35
2023-01-07T15:27:32.340Z,2.80
2023-01-07T15:30:10.395Z,3.13
2023-01-07T15:32:50.810Z,3.45
2023-01-07T15:35:21.734Z,3.17
2023-01-07T15:37:51.611Z,2.95
2023-01-07T15:40:23.567Z,3.15
2023-01-07T15:42:53.704Z,3.55
2023-01-07T15:45:23.906Z,3.70
2023-01-07T15:47:52.151Z,3.53
2023-01-07T15:50:29.997Z,3.47
2023-01-07T15:53:01.002Z,3.08
2023-01-07T15:55:33.888Z,3.42
2023-01-07T15:58:05.544Z,2.78
2023-01-07T16:00:34.793Z,3.45
2023-01-07T16:03:03.807Z,3.60
2023-01-07T16:05:32.116Z,2.95
2023-01-07T16:08:01.852Z,3.45
2023-01-07T16:10:33.548Z,3.35
2023-01-07T16:13:03.208Z,3.70
2023-01-07T16:15:32.979Z,3.20
2023-01-07T16:18:02.590Z,4.00
2023-01-07T16:20:33.929Z,2.97
2023-01-07T16:23:18.801Z,3.92
2023-01-07T16:25:51.630Z,3.17
2023-01-07T16:28:23.797Z,3.30
2023-01-07T16:30:52.594Z,3.47
2023-01-07T16:33:23.881Z,3.72
2023-01-07T16:35:54.007Z,3.42
2023-01-07T16:38:22.520Z,3.20
2023-01-07T16:40:52.178Z,3.40
2023-01-07T16:43:41.965Z,3.05
2023-01-07T16:46:19.070Z,3.00
2023-01-07T16:48:47.425Z,3.00
2023-01-07T16:51:38.500Z,2.63
2023-01-07T16:54:33.351Z,3.10
2023-01-07T16:57:05.053Z,3.63
2023-01-07T16:59:37.664Z,2.40
2023-01-07T17:02:20.270Z,2.78
2023-01-07T17:04:48.444Z,2.42
2023-01-07T17:07:20.960Z,2.72
2023-01-07T17:09:48.824Z,3.05
2023-01-07T17:12:36.487Z,2.85
2023-01-07T17:15:24.713Z,3.28
2023-01-07T17:17:52.486Z,3.00
2023-01-07T17:20:22.560Z,3.20
2023-01-07T17:22:51.119Z,2.70
2023-01-07T17:25:25.160Z,3.30
2023-01-07T17:27:58.206Z,3.10
2023-01-07T17:30:34.404Z,3.47
2023-01-07T17:33:02.544Z,3.45
2023-01-07T17:35:30.325Z,3.42
2023-01-07T17:37:58.129Z,2.97
2023-01-07T17:40:26.147Z,2.75
2023-01-07T17:43:14.254Z,3.85
2023-01-07T17:45:42.336Z,3.33
2023-01-07T17:48:13.875Z,3.28
2023-01-07T17:50:42.293Z,3.53
2023-01-07T17:53:20.335Z,3.08
2023-01-07T17:55:48.115Z,3.20
2023-01-07T17:58:26.217Z,3.30
2023-01-07T18:00:55.443Z,3.67
2023-01-07T18:03:24.430Z,3.30
2023-01-07T18:06:08.825Z,2.97
2023-01-07T18:08:37.705Z,3.45
2023-01-07T18:11:23.806Z,3.42
2023-01-07T18:13:52.996Z,3.03
2023-01-07T18:16:21.109Z,3.55
2023-01-07T18:18:49.124Z,7.32
2023-01-07T18:21:17.091Z,8.18
2023-01-07T18:23:45.919Z,3.42
2023-01-07T18:26:14.428Z,14.50
2023-01-07T18:28:44.538Z,4.07
2023-01-07T18:31:13.908Z,3.50
2023-01-07T18:33:42.273Z,3.42
2023-01-07T18:36:11.607Z,4.25
2023-01-07T18:38:40.052Z,3.67
2023-01-07T18:41:07.995Z,3.42
2023-01-07T18:43:36.245Z,7.70
2023-01-07T18:46:08.451Z,4.55
2023-01-07T18:48:38.187Z,4.35
2023-01-07T18:51:10.751Z,3.78
2023-01-07T18:53:39.012Z,4.25
2023-01-07T18:56:11.481Z,3.85
2023-01-07T18:58:39.852Z,4.43
2023-01-07T19:01:09.300Z,4.65
2023-01-07T19:03:39.291Z,4.63
2023-01-07T19:06:09.133Z,3.40
2023-01-07T19:08:37.129Z,3.33
2023-01-07T19:11:07.547Z,3.70
2023-01-07T19:13:35.648Z,3.80
2023-01-07T19:16:07.081Z,3.83
2023-01-07T19:18:34.965Z,4.18
2023-01-07T19:21:04.486Z,3.65
2023-01-07T19:23:32.776Z,3.45
2023-01-07T19:26:03.587Z,3.00
2023-01-07T19:28:32.768Z,3.78
2023-01-07T19:31:00.758Z,3.70
2023-01-07T19:33:28.701Z,4.65
2023-01-07T19:36:02.982Z,3.45
2023-01-07T19:38:32.149Z,4.20
2023-01-07T19:41:00.049Z,5.10
2023-01-07T19:43:28.986Z,7.88
2023-01-07T19:45:57.748Z,5.85
2023-01-07T19:48:25.677Z,4.47
2023-01-07T19:50:58.035Z,4.55
2023-01-07T19:53:26.274Z,4.22
2023-01-07T19:55:59.569Z,3.70
2023-01-07T19:58:27.577Z,3.80
2023-01-07T20:00:55.522Z,4.70
2023-01-07T20:03:23.380Z,4.93
2023-01-07T20:05:51.250Z,3.95
2023-01-07T20:08:19.018Z,3.78
2023-01-07T20:10:58.182Z,4.75
2023-01-07T20:13:26.187Z,5.45
2023-01-07T20:15:54.044Z,4.72
2023-01-07T20:18:22.468Z,4.50
2023-01-07T20:20:57.074Z,5.85
2023-01-07T20:23:24.902Z,4.75
2023-01-07T20:25:52.881Z,4.65
2023-01-07T20:28:22.391Z,5.60
2023-01-07T20:30:50.234Z,5.03
2023-01-07T20:33:18.135Z,5.60
2023-01-07T20:35:46.630Z,5.47
2023-01-07T20:38:14.513Z,5.65
2023-01-07T20:40:43.034Z,5.95
2023-01-07T20:43:12.706Z,6.07
2023-01-07T20:45:41.844Z,6.57
2023-01-07T20:48:09.673Z,6.15
2023-01-07T20:50:39.926Z,6.35
2023-01-07T20:53:08.050Z,7.22
2023-01-07T20:55:37.199Z,6.88
2023-01-07T20:58:05.045Z,6.63
2023-01-07T21:00:33.819Z,5.63
2023-01-07T21:03:03.074Z,6.63
2023-01-07T21:05:31.006Z,6.40
2023-01-07T21:07:59.321Z,7.47
2023-01-07T21:10:27.323Z,5.00
2023-01-07T21:12:55.082Z,4.60
2023-01-07T21:15:22.940Z,4.15
2023-01-07T21:17:53.877Z,4.68
2023-01-07T21:20:23.229Z,4.22
2023-01-07T21:22:51.040Z,3.58
2023-01-07T21:25:18.922Z,3.92
2023-01-07T21:27:48.453Z,3.53
2023-01-07T21:30:18.117Z,3.83
2023-01-07T21:32:47.253Z,4.05
2023-01-07T21:35:15.557Z,3.38
2023-01-07T21:37:44.825Z,3.50
2023-01-07T21:40:12.845Z,3.90
2023-01-07T21:42:40.730Z,3.63
2023-01-07T21:45:09.306Z,3.70
2023-01-07T21:47:37.054Z,4.03
2023-01-07T21:50:05.494Z,3.72
2023-01-07T21:52:35.377Z,3.97
2023-01-07T21:55:05.126Z,3.33
2023-01-07T21:57:33.807Z,3.75
2023-01-07T22:00:01.628Z,3.22
2023-01-07T22:02:29.429Z,4.00
2023-01-07T22:04:57.261Z,3.38
2023-01-07T22:07:25.073Z,3.72
2023-01-07T22:09:52.945Z,3.58
2023-01-07T22:12:23.335Z,3.70
2023-01-07T22:14:51.197Z,3.80
2023-01-07T22:17:19.043Z,3.97
2023-01-07T22:19:46.866Z,3.92
2023-01-07T22:22:16.577Z,3.85
2023-01-07T22:24:44.552Z,4.45
2023-01-07T22:27:12.395Z,3.85
2023-01-07T22:29:42.105Z,4.30
2023-01-07T22:32:09.954Z,4.05
2023-01-07T22:34:38.171Z,4.40
2023-01-07T22:37:09.107Z,4.13
2023-01-07T22:39:40.393Z,4.30
2023-01-07T22:42:11.535Z,3.85
2023-01-07T22:44:45.096Z,4.25
2023-01-07T22:47:15.182Z,3.67
2023-01-07T22:49:43.516Z,4.03
2023-01-07T22:52:12.741Z,4.47
2023-01-07T22:54:41.016Z,3.17
2023-01-07T22:57:11.035Z,3.88
2023-01-07T22:59:38.983Z,3.72
2023-01-07T23:02:08.126Z,3.92
2023-01-07T23:04:35.923Z,3.83
2023-01-07T23:07:03.935Z,4.28
2023-01-07T23:09:31.965Z,3.95
2023-01-07T23:12:00.840Z,3.88
2023-01-07T23:14:30.332Z,3.35
2023-01-07T23:16:58.981Z,3.67
2023-01-07T23:19:29.148Z,4.13
2023-01-07T23:21:57.715Z,3.63
2023-01-07T23:24:25.686Z,4.03
2023-01-07T23:26:55.025Z,3.60
2023-01-07T23:29:23.238Z,3.40
2023-01-07T23:31:51.179Z,3.15
2023-01-07T23:34:19.988Z,3.30
2023-01-07T23:36:49.099Z,3.22
2023-01-07T23:39:16.890Z,3.42
2023-01-07T23:41:45.680Z,3.63
2023-01-07T23:44:13.851Z,3.20
2023-01-07T23:46:41.632Z,3.80
2023-01-07T23:49:09.518Z,3.88
2023-01-07T23:51:37.301Z,4.13
2023-01-07T23:54:06.582Z,3.65
2023-01-07T23:56:34.428Z,3.20
2023-01-07T23:59:03.122Z,3.67
